Goshen, UT (84633)

6:36 PM MDT on May 28, 2015 (GMT -0600)
MesoWest | | Change Station
CLOSE
Current Station
Personal Weather Station
Location: Goshen, UT
Elevation: 4762 ft
Nearby Weather Stations

Elev 4762 ft 39.92 °N, 111.88 °W | Updated 46 minutes ago

Mostly Cloudy
Mostly Cloudy
66 °F
Feels Like 66 °F
N
3
Wind Variable Wind from East
Gusts 5.0 mph

Today
High -- | Low -- °F
--% Chance of Precip.
Yesterday
High -- | Low -- °F
Precip. -- in
6:03 AM 8:47 PM
Waxing Gibbous, 79% visible
Pressure 30.09 in
Visibility 15.0 miles
Clouds Scattered Clouds 7000 ft
Dew Point 48 °F
Humidity 52%
Rainfall in
Snow Depth Not available.
UV 3 out of 12
Pollen 3.60 out of 12
Air Quality Not available.
Flu Activity Sporadic
METAR KPVU 282348Z 32010G15KT 15SM SCT070 21/07 A3009 RMK LTG DSNT SW

More Conditions Fewer Conditions

Pressure 30.09 in
Visibility 15.0 miles
Clouds Scattered Clouds 7000 ft
Dew Point 48 °F
Humidity 52%
Rainfall in
Snow Depth Not available.
UV 3 out of 12
Pollen 3.60 out of 12
Air Quality Not available.
Flu Activity Sporadic
METAR KPVU 282348Z 32010G15KT 15SM SCT070 21/07 A3009 RMK LTG DSNT SW

More Conditions Fewer Conditions

Nowcast | as of 5:43 PM MDT on May 28, 2015

Isolated thunderstorms are all that remain early this evening along the Wasatch front. The strongest storms at 540 PM were located over the northeast arm of the Great Salt Lake and near Salem in Utah County. They are moving southeast at about 20 mph. These storms will be capable of producing cloud to ground lightning...small hail...brief heavy rainfall...and gusty winds.

×

10-Day Weather Forecast

Almanac

Astronomy

May. 28, 2015 Rise Set
Actual Time
Civil Twilight
Nautical Twilight
Astronomical Twilight
Moon
Length of Visible Light
Length of Day
Tomorrow will be .
, % of the Moon is Illuminated

Today's Extremes

State Highs State Lows

Community

WunderPhotos

Upload Photos

1,825,099 photos uploaded!

WunderBlogs® & News

Nearby

Air Quality

  Air Quality AQ Index Pollutant
Not available.

Snow Depth

Station Depth Elevation

Earthquake Activity

City Distance Mag. Time & Date
Minimum magnitude displayed is 2.5.

Coastal Water Temperatures

Place Temperature

Stations

Nearby Weather Stations

Station Location Temp. Windchill Dew Point Humidity Wind Precip. Elev Updated Type